createdAt,value
2019-04-06T00:04:52.073Z,9.33
2019-04-06T00:07:23.818Z,10.10
2019-04-06T00:09:54.379Z,10.53
2019-04-06T00:12:24.823Z,10.33
2019-04-06T00:14:55.427Z,10.33
2019-04-06T00:17:26.558Z,9.33
2019-04-06T00:19:56.868Z,9.93
2019-04-06T00:22:27.239Z,9.63
2019-04-06T00:24:57.523Z,9.83
2019-04-06T00:27:27.980Z,10.43
2019-04-06T00:29:58.324Z,10.17
2019-04-06T00:32:28.788Z,9.33
2019-04-06T00:35:00.118Z,9.53
2019-04-06T00:37:37.684Z,11.10
2019-04-06T00:40:08.004Z,10.93
2019-04-06T00:42:39.138Z,10.47
2019-04-06T00:45:11.487Z,11.50
2019-04-06T00:47:42.830Z,11.37
2019-04-06T00:50:13.300Z,10.80
2019-04-06T00:52:43.760Z,10.90
2019-04-06T00:55:16.022Z,10.00
2019-04-06T00:57:46.336Z,11.00
2019-04-06T01:00:16.850Z,11.03
2019-04-06T01:02:47.972Z,10.80
2019-04-06T01:05:18.285Z,10.20
2019-04-06T01:07:48.627Z,10.57
2019-04-06T01:10:19.715Z,11.10
2019-04-06T01:12:50.102Z,10.43
2019-04-06T01:15:21.406Z,10.47
2019-04-06T01:17:51.721Z,8.67
2019-04-06T01:20:27.191Z,9.67
2019-04-06T01:22:57.736Z,9.80
2019-04-06T01:25:28.488Z,10.67
2019-04-06T01:27:59.051Z,10.57
2019-04-06T01:30:29.394Z,8.80
2019-04-06T01:32:59.862Z,10.37
2019-04-06T01:35:30.179Z,10.23
2019-04-06T01:38:00.516Z,9.70
2019-04-06T01:40:31.973Z,10.57
2019-04-06T01:43:02.292Z,10.93
2019-04-06T01:45:33.399Z,10.33
2019-04-06T01:48:04.299Z,9.30
2019-04-06T01:50:34.616Z,10.67
2019-04-06T01:53:05.805Z,10.20
2019-04-06T01:55:43.440Z,10.37
2019-04-06T01:58:14.556Z,10.20
2019-04-06T02:01:03.681Z,9.73
2019-04-06T02:03:34.031Z,9.80
2019-04-06T02:06:08.536Z,9.70
2019-04-06T02:08:38.856Z,11.03
2019-04-06T02:11:09.651Z,9.70
2019-04-06T02:13:40.550Z,9.67
2019-04-06T02:16:15.221Z,10.53
2019-04-06T02:18:46.155Z,10.27
2019-04-06T02:21:16.493Z,10.07
2019-04-06T02:23:47.590Z,8.60
2019-04-06T02:26:30.716Z,9.70
2019-04-06T02:28:55.728Z,10.27
2019-04-06T02:31:30.158Z,9.43
2019-04-06T02:34:03.960Z,8.67
2019-04-06T02:36:34.264Z,9.00
2019-04-06T02:39:09.258Z,8.97
2019-04-06T02:41:45.905Z,10.13
2019-04-06T02:44:16.262Z,9.23
2019-04-06T02:46:46.545Z,9.73
2019-04-06T02:49:19.101Z,8.97
2019-04-06T02:51:49.272Z,9.07
2019-04-06T02:54:19.566Z,10.10
2019-04-06T02:56:50.037Z,9.30
2019-04-06T02:59:20.452Z,10.40
2019-04-06T03:01:51.527Z,9.60
2019-04-06T03:04:21.979Z,9.57
2019-04-06T03:06:52.649Z,10.00
2019-04-06T03:09:23.909Z,9.90
2019-04-06T03:11:57.282Z,9.73
2019-04-06T03:17:10.536Z,10.37
2019-04-06T03:19:40.855Z,10.13
2019-04-06T03:22:11.174Z,9.87
2019-04-06T03:24:41.519Z,9.77
2019-04-06T03:27:14.242Z,9.50
2019-04-06T03:29:56.441Z,10.00
2019-04-06T03:32:15.976Z,10.57
2019-04-06T03:34:46.186Z,9.83
2019-04-06T03:37:16.578Z,9.60
2019-04-06T03:39:50.829Z,10.13
2019-04-06T03:42:21.338Z,10.63
2019-04-06T03:44:51.462Z,9.97
2019-04-06T03:47:21.805Z,9.67
2019-04-06T03:49:52.119Z,9.83
2019-04-06T03:52:22.432Z,9.87
2019-04-06T03:54:52.837Z,10.67
2019-04-06T03:57:23.171Z,10.13
2019-04-06T03:59:53.627Z,10.57
2019-04-06T04:02:24.013Z,9.60
2019-04-06T04:04:55.072Z,10.57
2019-04-06T04:07:28.468Z,10.43
2019-04-06T04:10:00.881Z,11.00
2019-04-06T04:12:31.375Z,9.47
2019-04-06T04:15:01.897Z,10.00
2019-04-06T04:17:32.847Z,9.63
2019-04-06T04:20:03.158Z,9.53
2019-04-06T04:22:35.210Z,8.70
2019-04-06T04:25:04.549Z,8.70
2019-04-06T04:27:34.876Z,9.37
2019-04-06T04:30:06.246Z,8.90
2019-04-06T04:32:36.560Z,9.73
2019-04-06T04:35:06.877Z,9.10
2019-04-06T04:37:37.464Z,8.70
2019-04-06T04:40:07.769Z,7.93
2019-04-06T04:42:38.090Z,8.27
2019-04-06T04:45:28.589Z,8.17
2019-04-06T04:47:59.669Z,9.33
2019-04-06T04:50:29.984Z,9.33
2019-04-06T04:53:01.395Z,8.93
2019-04-06T04:55:31.713Z,10.10
2019-04-06T04:58:02.026Z,9.07
2019-04-06T05:00:32.367Z,8.00
2019-04-06T05:03:02.677Z,9.53
2019-04-06T05:05:32.988Z,9.60
2019-04-06T05:08:23.824Z,9.07
2019-04-06T05:10:54.812Z,10.03
2019-04-06T05:13:25.126Z,10.03
2019-04-06T05:16:09.274Z,9.83
2019-04-06T05:18:39.603Z,10.13
2019-04-06T05:21:09.982Z,10.73
2019-04-06T05:23:40.271Z,10.03
2019-04-06T05:26:12.636Z,10.50
2019-04-06T05:28:42.954Z,10.07
2019-04-06T05:31:13.308Z,10.60
2019-04-06T05:33:49.754Z,9.77
2019-04-06T05:36:20.113Z,10.77
2019-04-06T05:38:50.439Z,10.87
2019-04-06T05:41:24.869Z,9.63
2019-04-06T05:43:55.396Z,10.50
2019-04-06T05:46:25.546Z,10.57
2019-04-06T05:48:55.869Z,11.17
2019-04-06T05:51:26.952Z,10.67
2019-04-06T05:53:57.265Z,9.40
2019-04-06T05:56:27.631Z,10.00
2019-04-06T05:58:57.951Z,10.00
2019-04-06T06:01:30.351Z,8.97
2019-04-06T06:04:01.480Z,10.67
2019-04-06T06:06:31.797Z,10.00
2019-04-06T06:09:02.111Z,11.30
2019-04-06T06:11:32.498Z,10.00
2019-04-06T06:14:02.819Z,10.17
2019-04-06T06:16:33.135Z,9.97
2019-04-06T06:19:03.481Z,9.93
2019-04-06T06:21:33.813Z,11.07
2019-04-06T06:24:04.233Z,10.83
2019-04-06T06:26:34.690Z,9.93
2019-04-06T06:29:04.788Z,10.70
2019-04-06T06:31:35.371Z,10.50
2019-04-06T06:34:05.714Z,10.13
2019-04-06T06:36:37.719Z,9.97
2019-04-06T06:39:08.307Z,9.80
2019-04-06T06:41:38.301Z,9.47
2019-04-06T06:44:08.620Z,9.97
2019-04-06T06:46:38.935Z,9.83
2019-04-06T06:49:28.788Z,10.70
2019-04-06T06:51:58.964Z,9.83
2019-04-06T06:54:29.292Z,9.93
2019-04-06T06:56:59.632Z,11.00
2019-04-06T06:59:31.643Z,10.10
2019-04-06T07:02:01.956Z,9.80
2019-04-06T07:04:32.294Z,9.77
2019-04-06T07:07:02.610Z,9.53
2019-04-06T07:09:34.161Z,9.40
2019-04-06T07:12:05.325Z,9.73
2019-04-06T07:14:56.033Z,9.83
2019-04-06T07:17:32.502Z,9.40
2019-04-06T07:20:22.199Z,9.47
2019-04-06T07:22:52.538Z,9.57
2019-04-06T07:25:22.857Z,9.67
2019-04-06T07:30:34.886Z,8.57
2019-04-06T07:33:05.969Z,10.33
2019-04-06T07:35:36.286Z,9.93
2019-04-06T07:38:07.712Z,12.35
2019-04-06T07:40:38.864Z,10.50
2019-04-06T07:43:15.283Z,8.60
2019-04-06T07:45:46.616Z,9.57
2019-04-06T07:48:25.133Z,9.53
2019-04-06T07:50:55.451Z,10.20
2019-04-06T07:53:25.774Z,10.43
2019-04-06T07:55:58.240Z,10.37
2019-04-06T07:58:28.491Z,9.93
2019-04-06T08:01:02.899Z,9.83
2019-04-06T08:03:37.340Z,9.60
2019-04-06T08:06:08.671Z,9.10
2019-04-06T08:08:44.130Z,10.20
2019-04-06T08:11:14.452Z,9.90
2019-04-06T08:14:03.904Z,9.03
2019-04-06T08:16:34.201Z,9.87
2019-04-06T08:19:04.518Z,9.33
2019-04-06T08:21:34.859Z,8.60
2019-04-06T08:24:05.318Z,8.40
2019-04-06T08:26:36.277Z,8.90
2019-04-06T08:29:06.601Z,8.83
2019-04-06T08:31:36.923Z,8.40
2019-04-06T08:34:28.667Z,7.40
2019-04-06T08:36:59.008Z,8.83
2019-04-06T08:39:30.123Z,9.20
2019-04-06T08:42:00.873Z,7.93
2019-04-06T08:44:32.789Z,8.27
2019-04-06T08:47:03.119Z,8.27
2019-04-06T08:49:34.038Z,8.27
2019-04-06T08:52:05.118Z,8.13
2019-04-06T08:54:56.621Z,7.53
2019-04-06T08:57:27.310Z,7.33
2019-04-06T08:59:57.626Z,7.87
2019-04-06T09:02:28.563Z,8.60
2019-04-06T09:04:58.518Z,8.50
2019-04-06T09:07:28.834Z,8.73
2019-04-06T09:10:00.915Z,9.07
2019-04-06T09:12:31.869Z,9.00
2019-04-06T09:15:03.248Z,8.60
2019-04-06T09:17:33.758Z,9.07
2019-04-06T09:20:10.219Z,8.00
2019-04-06T09:22:40.597Z,8.43
2019-04-06T09:25:10.915Z,7.53
2019-04-06T09:27:41.236Z,8.63
2019-04-06T09:30:11.587Z,8.07
2019-04-06T09:32:42.674Z,8.57
2019-04-06T09:35:19.207Z,7.40
2019-04-06T09:37:49.569Z,8.17
2019-04-06T09:40:19.821Z,9.00
2019-04-06T09:42:50.183Z,8.67
2019-04-06T09:45:23.404Z,7.73
2019-04-06T09:47:56.316Z,8.13
2019-04-06T09:50:26.671Z,7.97
2019-04-06T09:52:56.915Z,7.80
2019-04-06T09:55:33.057Z,7.83
2019-04-06T09:58:04.401Z,7.60
2019-04-06T10:00:40.917Z,8.17
2019-04-06T10:03:12.253Z,7.13
2019-04-06T10:05:42.572Z,7.07
2019-04-06T10:08:30.749Z,8.60
2019-04-06T10:11:21.343Z,8.63
2019-04-06T10:13:56.805Z,8.03
2019-04-06T10:16:35.979Z,8.40
2019-04-06T10:19:09.057Z,7.03
2019-04-06T10:21:42.065Z,6.90
2019-04-06T10:24:18.919Z,6.30
2019-04-06T10:29:48.829Z,6.40
2019-04-06T10:32:31.584Z,6.27
2019-04-06T10:35:07.516Z,5.80
2019-04-06T10:37:40.459Z,6.07
2019-04-06T10:40:20.091Z,5.93
2019-04-06T10:43:02.002Z,6.70
2019-04-06T10:45:48.541Z,6.10
2019-04-06T10:48:27.231Z,6.70
2019-04-06T10:51:17.678Z,6.20
2019-04-06T10:53:47.995Z,6.17
2019-04-06T10:56:24.258Z,6.80
2019-04-06T10:58:54.384Z,6.63
2019-04-06T11:01:27.123Z,7.23
2019-04-06T11:03:59.517Z,6.70
2019-04-06T11:06:38.680Z,6.43
2019-04-06T11:09:25.105Z,6.67
2019-04-06T11:12:14.458Z,5.70
2019-04-06T11:14:53.667Z,6.30
2019-04-06T11:17:24.329Z,6.00
2019-04-06T11:20:06.100Z,5.60
2019-04-06T11:22:45.741Z,5.70
2019-04-06T11:28:14.121Z,5.87
2019-04-06T11:30:45.266Z,6.07
2019-04-06T11:33:21.055Z,8.80
2019-04-06T11:35:57.219Z,7.23
2019-04-06T11:38:32.699Z,6.50
2019-04-06T11:41:03.096Z,6.27
2019-04-06T11:43:33.363Z,7.13
2019-04-06T11:46:11.470Z,6.23
2019-04-06T11:48:59.908Z,6.47
2019-04-06T11:51:39.948Z,5.47
2019-04-06T11:54:22.223Z,5.30
2019-04-06T11:57:10.524Z,5.60
2019-04-06T11:59:49.752Z,6.30
2019-04-06T12:02:19.921Z,6.37
2019-04-06T12:05:01.982Z,5.27
2019-04-06T12:07:40.121Z,5.37
2019-04-06T12:10:16.301Z,5.10
2019-04-06T12:12:49.595Z,5.30
2019-04-06T12:15:22.877Z,4.93
2019-04-06T12:18:02.617Z,5.90
2019-04-06T12:20:35.340Z,5.33
2019-04-06T12:23:23.550Z,5.00
2019-04-06T12:25:56.900Z,5.70
2019-04-06T12:28:26.908Z,5.83
2019-04-06T12:30:57.240Z,5.70
2019-04-06T12:33:27.557Z,5.30
2019-04-06T12:35:58.092Z,5.30
2019-04-06T12:38:38.088Z,4.77
2019-04-06T12:41:28.194Z,4.67
2019-04-06T12:44:04.329Z,5.07
2019-04-06T12:46:54.928Z,4.90
2019-04-06T12:49:44.366Z,5.23
2019-04-06T12:52:23.739Z,4.83
2019-04-06T12:54:54.793Z,4.70
2019-04-06T12:57:43.211Z,4.30
2019-04-06T13:00:32.048Z,5.20
2019-04-06T13:03:10.861Z,4.60
2019-04-06T13:05:50.830Z,4.80
2019-04-06T13:08:27.034Z,4.93
2019-04-06T13:11:02.629Z,4.30
2019-04-06T13:13:33.708Z,4.70
2019-04-06T13:16:29.255Z,4.40
2019-04-06T13:19:05.794Z,4.83
2019-04-06T13:21:47.089Z,4.67
2019-04-06T13:24:48.642Z,4.30
2019-04-06T13:27:37.229Z,4.33
2019-04-06T13:30:33.714Z,4.30
2019-04-06T13:33:05.344Z,5.07
2019-04-06T13:35:41.488Z,4.37
2019-04-06T13:38:18.454Z,4.93
2019-04-06T13:40:54.149Z,4.70
2019-04-06T13:43:42.537Z,5.00
2019-04-06T13:46:21.620Z,4.83
2019-04-06T13:49:10.046Z,5.10
2019-04-06T13:54:43.218Z,5.60
2019-04-06T13:57:18.859Z,5.50
2019-04-06T13:59:56.916Z,5.40
2019-04-06T14:02:40.128Z,6.13
2019-04-06T14:05:13.041Z,6.07
2019-04-06T14:07:55.295Z,6.40
2019-04-06T14:10:27.976Z,7.67
2019-04-06T14:13:19.705Z,7.00
2019-04-06T14:15:57.717Z,7.83
2019-04-06T14:19:03.215Z,7.37
2019-04-06T14:21:40.020Z,6.83
2019-04-06T14:24:19.113Z,6.60
2019-04-06T14:26:58.614Z,7.00
2019-04-06T14:29:31.737Z,8.07
2019-04-06T14:32:04.708Z,7.40
2019-04-06T14:34:40.716Z,8.33
2019-04-06T14:37:29.263Z,6.90
2019-04-06T14:40:10.475Z,6.43
2019-04-06T14:42:55.439Z,6.17
2019-04-06T14:45:25.759Z,6.13
2019-04-06T14:48:00.186Z,6.13
2019-04-06T14:50:37.813Z,6.97
2019-04-06T14:53:11.483Z,7.03
2019-04-06T14:55:43.967Z,5.30
2019-04-06T14:58:31.211Z,3.83
2019-04-06T15:01:19.502Z,2.10
2019-04-06T15:03:50.003Z,1.87
2019-04-06T15:06:23.891Z,2.43
2019-04-06T15:09:00.156Z,3.47
2019-04-06T15:11:30.665Z,2.20
2019-04-06T15:14:19.901Z,2.23
2019-04-06T15:16:53.003Z,1.90
2019-04-06T15:19:41.278Z,1.87
2019-04-06T15:22:26.526Z,1.70
2019-04-06T15:25:05.965Z,2.03
2019-04-06T15:27:38.778Z,1.53
2019-04-06T15:30:20.415Z,1.50
2019-04-06T15:32:54.538Z,1.13
2019-04-06T15:35:28.487Z,1.10
2019-04-06T15:38:12.816Z,1.10
2019-04-06T15:40:54.898Z,1.87
2019-04-06T15:43:43.433Z,1.90
2019-04-06T15:46:16.243Z,1.30
2019-04-06T15:49:04.791Z,1.17
2019-04-06T15:51:53.032Z,1.20
2019-04-06T15:54:27.207Z,1.80
2019-04-06T15:57:03.003Z,1.33
2019-04-06T15:59:39.660Z,1.70
2019-04-06T16:02:28.361Z,1.87
2019-04-06T16:04:58.450Z,1.40
2019-04-06T16:07:35.154Z,1.77
2019-04-06T16:10:08.232Z,1.00
2019-04-06T16:12:47.376Z,1.10
2019-04-06T16:15:23.209Z,2.60
2019-04-06T16:17:53.567Z,2.30
2019-04-06T16:20:29.346Z,3.10
2019-04-06T16:23:14.704Z,3.43
2019-04-06T16:25:57.097Z,3.33
2019-04-06T16:28:33.574Z,2.10
2019-04-06T16:31:23.016Z,2.63
2019-04-06T16:34:05.130Z,2.60
2019-04-06T16:36:38.619Z,3.40
2019-04-06T16:39:27.038Z,3.50
2019-04-06T16:42:13.422Z,3.53
2019-04-06T16:47:36.375Z,5.70
2019-04-06T16:50:45.906Z,5.90
2019-04-06T16:53:19.285Z,6.07
2019-04-06T16:55:49.940Z,6.20
2019-04-06T16:58:29.109Z,6.13
2019-04-06T17:01:01.862Z,6.03
2019-04-06T17:03:39.972Z,5.60
2019-04-06T17:06:18.364Z,4.80
2019-04-06T17:09:07.193Z,3.90
2019-04-06T17:11:55.562Z,7.83
2019-04-06T17:14:28.620Z,6.37
2019-04-06T17:17:02.491Z,5.80
2019-04-06T17:19:51.723Z,7.90
2019-04-06T17:22:36.900Z,8.27
2019-04-06T17:25:07.499Z,5.97
2019-04-06T17:27:45.301Z,6.07
2019-04-06T17:30:15.528Z,5.80
2019-04-06T17:32:48.509Z,5.67
2019-04-06T17:35:22.118Z,6.37
2019-04-06T17:37:53.485Z,7.70
2019-04-06T17:40:36.399Z,6.07
2019-04-06T17:43:25.423Z,6.27
2019-04-06T17:46:01.360Z,10.67
2019-04-06T17:48:32.793Z,7.80
2019-04-06T17:51:21.440Z,6.97
2019-04-06T17:54:09.852Z,6.40
2019-04-06T17:56:40.198Z,4.17
2019-04-06T17:59:28.292Z,3.30
2019-04-06T18:02:01.194Z,2.97
2019-04-06T18:04:49.992Z,2.40
2019-04-06T18:07:38.162Z,2.00
2019-04-06T18:10:14.100Z,1.93
2019-04-06T18:12:53.409Z,2.07
2019-04-06T18:15:23.858Z,1.90
2019-04-06T18:17:54.031Z,2.57
2019-04-06T18:20:24.382Z,2.17
2019-04-06T18:22:55.527Z,2.07
2019-04-06T18:25:26.817Z,2.50
2019-04-06T18:27:57.235Z,3.00
2019-04-06T18:30:32.797Z,3.37
2019-04-06T18:33:08.423Z,3.53
2019-04-06T18:35:39.756Z,5.70
2019-04-06T18:38:11.237Z,7.03
2019-04-06T18:40:47.769Z,5.33
2019-04-06T18:43:18.426Z,4.57
2019-04-06T18:45:48.298Z,4.53
2019-04-06T18:48:18.642Z,3.80
2019-04-06T18:50:48.957Z,4.10
2019-04-06T18:53:19.390Z,5.17
2019-04-06T18:55:49.606Z,5.00
2019-04-06T18:58:19.928Z,5.23
2019-04-06T19:00:50.722Z,7.90
2019-04-06T19:03:20.904Z,12.43
2019-04-06T19:05:51.265Z,13.13
2019-04-06T19:08:22.012Z,11.83
2019-04-06T19:10:52.646Z,9.57
2019-04-06T19:13:23.718Z,8.77
2019-04-06T19:15:54.004Z,6.90
2019-04-06T19:18:25.373Z,6.67
2019-04-06T19:21:16.392Z,6.40
2019-04-06T19:23:46.425Z,5.37
2019-04-06T19:26:17.156Z,3.87
2019-04-06T19:28:47.048Z,3.60
2019-04-06T19:31:17.392Z,2.80
2019-04-06T19:33:47.703Z,2.53
2019-04-06T19:36:18.118Z,2.13
2019-04-06T19:38:48.492Z,2.10
2019-04-06T19:41:19.095Z,2.10
2019-04-06T19:43:49.986Z,2.07
2019-04-06T19:46:42.022Z,1.77
2019-04-06T19:49:11.927Z,1.50
2019-04-06T19:51:42.364Z,1.40
2019-04-06T19:54:12.998Z,1.97
2019-04-06T19:56:44.077Z,1.20
2019-04-06T19:59:13.968Z,2.30
2019-04-06T20:01:44.323Z,2.30
2019-04-06T20:04:15.066Z,1.13
2019-04-06T20:06:45.521Z,1.57
2019-04-06T20:09:20.776Z,1.40
2019-04-06T20:12:11.514Z,1.90
2019-04-06T20:14:41.865Z,1.80
2019-04-06T20:17:12.243Z,2.53
2019-04-06T20:19:43.878Z,2.43
2019-04-06T20:22:14.867Z,2.00
2019-04-06T20:24:45.083Z,1.20
2019-04-06T20:27:16.234Z,1.47
2019-04-06T20:29:46.588Z,1.83
2019-04-06T20:32:16.903Z,1.23
2019-04-06T20:34:47.225Z,1.40
2019-04-06T20:37:37.515Z,2.87
2019-04-06T20:42:49.345Z,4.23
2019-04-06T20:45:20.922Z,4.37
2019-04-06T20:47:51.160Z,3.87
2019-04-06T20:50:24.475Z,4.20
2019-04-06T20:52:54.619Z,3.70
2019-04-06T20:55:25.955Z,3.30
2019-04-06T20:58:15.753Z,3.27
2019-04-06T21:00:45.721Z,3.03
2019-04-06T21:03:16.035Z,3.30
2019-04-06T21:05:47.649Z,3.90
2019-04-06T21:08:17.457Z,4.27
2019-04-06T21:10:47.777Z,9.93
2019-04-06T21:13:21.275Z,9.43
2019-04-06T21:16:13.679Z,7.50
2019-04-06T21:18:44.468Z,9.20
2019-04-06T21:21:17.672Z,9.13
2019-04-06T21:23:48.333Z,6.17
2019-04-06T21:26:18.155Z,4.20
2019-04-06T21:28:48.807Z,4.57
2019-04-06T21:31:18.714Z,3.80
2019-04-06T21:33:49.225Z,4.07
2019-04-06T21:36:23.470Z,4.17
2019-04-06T21:38:54.130Z,3.93
2019-04-06T21:41:43.807Z,4.43
2019-04-06T21:44:14.164Z,4.10
2019-04-06T21:46:44.675Z,4.03
2019-04-06T21:49:14.865Z,3.57
2019-04-06T21:51:47.244Z,3.40
2019-04-06T21:54:24.013Z,2.50
2019-04-06T21:56:56.103Z,2.37
2019-04-06T21:59:26.681Z,2.60
2019-04-06T22:01:58.075Z,2.10
2019-04-06T22:04:35.272Z,2.10
2019-04-06T22:07:05.586Z,1.60
2019-04-06T22:09:42.367Z,2.40
2019-04-06T22:12:32.148Z,1.90
2019-04-06T22:15:02.100Z,2.57
2019-04-06T22:17:34.214Z,2.80
2019-04-06T22:20:03.000Z,2.90
2019-04-06T22:22:33.512Z,2.97
2019-04-06T22:25:03.388Z,3.07
2019-04-06T22:27:33.702Z,2.67
2019-04-06T22:30:04.641Z,2.93
2019-04-06T22:32:34.356Z,2.50
2019-04-06T22:35:04.668Z,2.90
2019-04-06T22:37:35.021Z,2.77
2019-04-06T22:40:08.638Z,2.93
2019-04-06T22:42:38.583Z,2.60
2019-04-06T22:45:09.308Z,2.37
2019-04-06T22:47:41.480Z,2.73
2019-04-06T22:50:12.958Z,2.30
2019-04-06T22:52:43.492Z,1.73
2019-04-06T22:55:21.040Z,1.93
2019-04-06T22:57:51.249Z,2.00
2019-04-06T23:00:22.557Z,1.80
2019-04-06T23:02:55.498Z,1.47
2019-04-06T23:05:34.823Z,1.57
2019-04-06T23:08:05.553Z,1.60
2019-04-06T23:10:35.236Z,1.17
2019-04-06T23:13:06.585Z,1.23
2019-04-06T23:15:37.172Z,1.30
2019-04-06T23:18:07.215Z,1.40
2019-04-06T23:20:37.761Z,1.50
2019-04-06T23:23:07.867Z,2.23
2019-04-06T23:25:38.182Z,1.53
2019-04-06T23:28:08.524Z,1.20
2019-04-06T23:31:01.322Z,1.80
2019-04-06T23:33:32.122Z,1.37
2019-04-06T23:36:02.435Z,1.20
2019-04-06T23:38:52.148Z,1.40
2019-04-06T23:41:22.799Z,1.27
2019-04-06T23:43:53.107Z,1.30
2019-04-06T23:46:23.449Z,1.93
2019-04-06T23:48:53.437Z,1.07
2019-04-06T23:51:24.575Z,2.10
2019-04-06T23:53:54.930Z,1.57
2019-04-06T23:56:26.590Z,2.10
2019-04-06T23:58:57.345Z,2.03
